Latest Weather Observations for Mount Buller

IDV60801

Issued at 1:05 pm EST Thursday 31 July 2014 (issued every 30 minutes, with the page automatically refreshed every 10 minutes)

About weather observations | Map of weather stations | Latest weather observations for VIC | Other Formats
Station Details ID: 083024 Name: MOUNT BULLER Lat: -37.15 Lon: 146.44 Height: 1707.0 m
Data from the previous 72 hours. | See also: Recent months at Mount Buller
Date/Time
EST
Temp
°C
App
Temp
°C
Dew
Point
Rel
Hum
%
Delta-T
°C
Wind Press
QNH
hPa
Press
MSL
hPa
Rain
since 9 am
mm
Dir
 
Spd
km/h
Gust
km/h
Spd
kts
Gust
kts
31/01:00pm 1.5 - 1.5 100 0.0 - - - - - - - -
31/12:30pm 1.5 - 1.5 100 0.0 - - - - - - - -
31/12:00pm 1.6 - 1.6 100 0.0 - - - - - - - -
31/11:30am 1.4 - 1.4 100 0.0 - - - - - - - -
31/11:00am 1.4 - 1.4 100 0.0 - - - - - - - -
31/10:30am 1.7 - 1.7 100 0.0 - - - - - - - -
31/10:00am 1.5 - 1.5 100 0.0 - - - - - - - -
31/09:30am 1.4 - 1.4 100 0.0 - - - - - - - -
31/09:00am 1.4 - 1.4 100 0.0 - - - - - - - 16.0
31/08:30am 1.6 - 1.6 100 0.0 - - - - - - - -
31/08:00am 1.6 - 1.6 100 0.0 - - - - - - - -
31/07:30am 1.6 - 1.6 100 0.0 - - - - - - - -
31/07:00am 1.9 - 1.9 100 0.0 - - - - - - - -
31/06:30am 1.8 - 1.8 100 0.0 - - - - - - - -
31/06:00am 1.8 - 1.8 100 0.0 - - - - - - - -
31/05:30am 1.7 - 1.7 100 0.0 - - - - - - - -
31/05:00am 1.7 - 1.7 100 0.0 - - - - - - - -
31/04:30am 1.5 - 1.5 100 0.0 - - - - - - - -
31/04:00am 1.8 - 1.8 100 0.0 - - - - - - - -
31/03:30am 2.1 - 2.1 100 0.0 - - - - - - - -
31/03:00am 2.1 - 2.1 100 0.0 - - - - - - - 0.2
31/02:30am 2.1 - 2.1 100 0.0 - - - - - - - -
31/02:00am 2.0 - 2.0 100 0.0 - - - - - - - -
31/01:30am 2.0 - 2.0 100 0.0 - - - - - - - -
31/01:00am 2.1 - 2.1 100 0.0 - - - - - - - -
31/12:30am 2.1 - 2.1 100 0.0 - - - - - - - -
31/12:00am 2.1 - 2.1 100 0.0 - - - - - - - -
 
Date/Time
EST
Temp
°C
App
Temp
°C
Dew
Point
Rel
Hum
%
Delta-T
°C
Wind Press
QNH
hPa
Press
MSL
hPa
Rain
since 9 am
mm
Dir
 
Spd
km/h
Gust
km/h
Spd
kts
Gust
kts
30/11:30pm 1.7 - 1.7 100 0.0 - - - - - - - -
30/11:00pm 1.6 - 1.6 100 0.0 - - - - - - - -
30/10:30pm 1.6 - 1.6 100 0.0 - - - - - - - -
30/10:00pm 1.8 - 1.8 100 0.0 - - - - - - - -
30/09:30pm 2.0 - 2.0 100 0.0 - - - - - - - -
30/09:00pm 2.0 - 2.0 100 0.0 - - - - - - - 6.0
30/08:30pm 2.3 - 2.3 100 0.0 - - - - - - - -
30/08:00pm 2.6 - 2.6 100 0.0 - - - - - - - -
30/07:30pm 2.5 - 2.5 100 0.0 - - - - - - - -
30/07:00pm 2.7 - 2.7 100 0.0 - - - - - - - -
30/06:30pm 2.9 - 2.9 100 0.0 - - - - - - - -
30/06:00pm 2.8 - 2.8 100 0.0 - - - - - - - -
30/05:30pm 2.7 - 2.7 100 0.0 - - - - - - - -
30/05:00pm 2.8 - 2.8 100 0.0 - - - - - - - -
30/04:30pm 2.7 - 2.7 100 0.0 - - - - - - - -
30/04:00pm 2.8 - 2.8 100 0.0 - - - - - - - -
30/03:30pm 3.0 - 3.0 100 0.0 - - - - - - - -
30/03:00pm 2.9 - 2.9 100 0.0 - - - - - - - 9.0
30/02:30pm 2.9 - 2.9 100 0.0 - - - - - - - -
30/02:00pm 2.8 - 2.8 100 0.0 - - - - - - - -
30/01:30pm 2.7 - 2.7 100 0.0 - - - - - - - -
30/01:00pm 2.7 - 2.7 100 0.0 - - - - - - - -
30/12:30pm 2.8 - 2.8 100 0.0 - - - - - - - -
30/12:00pm 2.6 - 2.6 100 0.0 - - - - - - - -
30/11:30am 2.5 - 2.5 100 0.0 - - - - - - - -
30/11:00am 2.4 - 2.4 100 0.0 - - - - - - - -
30/10:30am 2.2 - 2.2 100 0.0 - - - - - - - -
30/10:00am 2.2 - 2.2 100 0.0 - - - - - - - -
30/09:30am 2.5 - 2.5 100 0.0 - - - - - - - -
30/09:00am 2.1 - 2.1 100 0.0 - - - - - - - 60.0
30/08:30am 2.2 - 2.2 100 0.0 - - - - - - - -
30/08:00am 2.6 - 2.6 100 0.0 - - - - - - - -
30/07:30am 2.6 - 2.6 100 0.0 - - - - - - - -
30/07:00am 2.7 - 2.7 100 0.0 - - - - - - - -
30/06:30am 2.8 - 2.8 100 0.0 - - - - - - - -
30/06:00am 2.6 - 2.6 100 0.0 - - - - - - - -
30/05:30am 2.7 - 2.7 100 0.0 - - - - - - - -
30/05:00am 2.6 - 2.6 100 0.0 - - - - - - - -
30/04:30am 2.8 - 2.8 100 0.0 - - - - - - - -
30/04:00am 2.9 - 2.9 100 0.0 - - - - - - - -
30/03:30am 2.7 - 2.7 100 0.0 - - - - - - - -
30/03:00am 2.9 - 2.9 100 0.0 - - - - - - - 29.0
30/02:30am 2.9 - 2.9 100 0.0 - - - - - - - -
30/02:00am 2.9 - 2.9 100 0.0 - - - - - - - -
30/01:30am 3.1 - 3.1 100 0.0 - - - - - - - -
30/01:00am 3.0 - 3.0 100 0.0 - - - - - - - -
30/12:30am 3.1 - 3.1 100 0.0 - - - - - - - -
30/12:00am 2.9 - 2.9 100 0.0 - - - - - - - -
 
Date/Time
EST
Temp
°C
App
Temp
°C
Dew
Point
Rel
Hum
%
Delta-T
°C
Wind Press
QNH
hPa
Press
MSL
hPa
Rain
since 9 am
mm
Dir
 
Spd
km/h
Gust
km/h
Spd
kts
Gust
kts
29/11:30pm 2.9 - 2.9 100 0.0 - - - - - - - -
29/11:00pm 3.1 - 3.1 100 0.0 - - - - - - - -
29/10:30pm 3.1 - 3.1 100 0.0 - - - - - - - -
29/10:00pm 3.0 - 3.0 100 0.0 - - - - - - - -
29/09:30pm 2.9 - 2.9 100 0.0 - - - - - - - -
29/09:00pm 2.5 - 2.5 100 0.0 - - - - - - - 9.0
29/08:30pm 2.6 - 2.6 100 0.0 - - - - - - - -
29/08:00pm 2.5 - 2.5 100 0.0 - - - - - - - -
29/07:30pm 2.3 - 2.3 100 0.0 - - - - - - - -
29/07:00pm 2.2 - 2.2 100 0.0 - - - - - - - -
29/06:30pm 2.1 - 2.1 100 0.0 - - - - - - - -
29/06:00pm 2.0 - 2.0 100 0.0 - - - - - - - -
29/05:30pm 1.7 - 1.7 100 0.0 - - - - - - - -
29/05:00pm 1.7 - 1.7 100 0.0 - - - - - - - -
29/04:30pm 1.6 - 1.6 100 0.0 - - - - - - - -
29/04:00pm 1.7 - 1.7 100 0.0 - - - - - - - -
29/03:30pm 1.6 - 1.6 100 0.0 - - - - - - - -
29/03:00pm 2.0 - 2.0 100 0.0 - - - - - - - 1.0
29/02:30pm 1.6 - 1.6 100 0.0 - - - - - - - -
29/02:00pm 1.6 - 1.6 100 0.0 - - - - - - - -
29/01:30pm 1.4 - 1.4 100 0.0 - - - - - - - -
29/01:00pm 1.4 - 1.4 100 0.0 - - - - - - - -
29/12:30pm 0.7 - 0.7 100 0.0 - - - - - - - -
29/12:00pm 0.7 - 0.7 100 0.0 - - - - - - - -
29/11:30am 0.6 - 0.6 100 0.0 - - - - - - - -
29/11:00am 0.7 - 0.7 100 0.0 - - - - - - - -
29/10:30am 0.7 - 0.7 100 0.0 - - - - - - - -
29/10:00am 0.5 - 0.5 100 0.0 - - - - - - - -
29/09:30am 0.4 - 0.4 100 0.0 - - - - - - - -
29/09:00am 0.6 - 0.6 100 0.0 - - - - - - - 0.0
29/08:30am 0.5 - 0.5 100 0.0 - - - - - - - -
29/08:00am 0.7 - 0.7 100 0.0 - - - - - - - -
29/07:30am 0.2 - 0.2 100 0.0 - - - - - - - -
29/07:00am 0.1 - 0.1 100 0.0 - - - - - - - -
29/06:30am 0.0 - 0.0 100 0.0 - - - - - - - -
29/06:00am -0.2 - -0.2 100 0.0 - - - - - - - -
29/05:30am -0.3 - -0.3 100 0.0 - - - - - - - -
29/05:00am -0.2 - -0.2 100 0.0 - - - - - - - -
29/04:30am 0.0 - 0.0 100 0.0 - - - - - - - -
29/04:00am 0.0 - 0.0 100 0.0 - - - - - - - -
29/03:30am 0.1 - 0.0 99 0.0 - - - - - - - -
29/03:00am 0.1 - -0.5 96 0.2 - - - - - - - 0.0
29/02:30am 0.7 - -1.4 86 0.9 - - - - - - - -
29/02:00am 0.7 - -0.6 91 0.5 - - - - - - - -
29/01:30am 1.0 - 0.3 95 0.3 - - - - - - - -
29/01:00am 1.3 - 0.7 96 0.3 - - - - - - - -
29/12:30am 1.6 - 0.9 95 0.3 - - - - - - - -
29/12:00am 1.2 - 0.9 98 0.1 - - - - - - - -
 
Date/Time
EST
Temp
°C
App
Temp
°C
Dew
Point
Rel
Hum
%
Delta-T
°C
Wind Press
QNH
hPa
Press
MSL
hPa
Rain
since 9 am
mm
Dir
 
Spd
km/h
Gust
km/h
Spd
kts
Gust
kts
28/11:30pm 1.1 - 1.0 99 0.0 - - - - - - - -
28/11:00pm 1.0 - 0.9 99 0.0 - - - - - - - -
28/10:30pm 0.9 - 0.8 99 0.0 - - - - - - - -
28/10:00pm 1.3 - 1.2 99 0.0 - - - - - - - -
28/09:30pm 0.8 - 0.8 100 0.0 - - - - - - - -
28/09:00pm 0.8 - 0.8 100 0.0 - - - - - - - 0.0
28/08:30pm 0.9 - 0.6 98 0.1 - - - - - - - -
28/08:00pm 1.0 - 0.3 95 0.3 - - - - - - - -
28/07:30pm 1.0 - 0.1 94 0.4 - - - - - - - -
28/07:00pm 1.4 - 0.7 95 0.3 - - - - - - - -
28/06:30pm 0.8 - 0.7 99 0.0 - - - - - - - -
28/06:00pm 0.9 - 0.5 97 0.2 - - - - - - - -
28/05:30pm 1.1 - 0.2 94 0.4 - - - - - - - -
28/05:00pm 1.8 - -0.1 87 0.8 - - - - - - - -
28/04:30pm 2.3 - -0.4 82 1.1 - - - - - - - -
28/04:00pm 1.9 - -0.3 85 0.9 - - - - - - - -
28/03:30pm 1.9 - -0.3 85 0.9 - - - - - - - -
28/03:00pm 1.7 - 0.5 92 0.5 - - - - - - - 0.0
28/02:30pm 1.8 - 0.5 91 0.5 - - - - - - - -
28/02:00pm 2.1 - 0.5 89 0.7 - - - - - - - -
28/01:30pm 2.0 - 0.7 91 0.5 - - - - - - - -

Other Formats:

Comma delimited format used in spreadsheet applications
http://www.bom.gov.au/fwo/IDV60801/IDV60801.94894.axf

JavaScript Object Notation format (JSON) in row-major order
http://www.bom.gov.au/fwo/IDV60801/IDV60801.94894.json